sensor_id;sensor_type;location;lat;lon;timestamp;temperature;humidity
18252;DHT22;26917;52.328;20.878;2022-09-12T00:02:24;10.80;99.90
18252;DHT22;26917;52.328;20.878;2022-09-12T00:04:53;10.90;99.90
18252;DHT22;26917;52.328;20.878;2022-09-12T00:07:24;10.90;99.90
18252;DHT22;26917;52.328;20.878;2022-09-12T00:10:06;10.80;99.90
18252;DHT22;26917;52.328;20.878;2022-09-12T00:12:35;10.80;99.90
18252;DHT22;26917;52.328;20.878;2022-09-12T00:15:09;10.80;99.90
18252;DHT22;26917;52.328;20.878;2022-09-12T00:17:38;10.80;99.90
18252;DHT22;26917;52.328;20.878;2022-09-12T00:20:11;10.80;99.90
18252;DHT22;26917;52.328;20.878;2022-09-12T00:22:40;10.80;99.90
18252;DHT22;26917;52.328;20.878;2022-09-12T00:25:17;10.80;99.90
18252;DHT22;26917;52.328;20.878;2022-09-12T00:27:45;10.80;99.90
18252;DHT22;26917;52.328;20.878;2022-09-12T00:30:20;10.80;99.90
18252;DHT22;26917;52.328;20.878;2022-09-12T00:32:49;10.80;99.90
18252;DHT22;26917;52.328;20.878;2022-09-12T00:35:25;10.90;99.90
18252;DHT22;26917;52.328;20.878;2022-09-12T00:37:56;10.80;99.90
18252;DHT22;26917;52.328;20.878;2022-09-12T00:40:26;10.80;99.90
18252;DHT22;26917;52.328;20.878;2022-09-12T00:43:00;10.80;99.90
18252;DHT22;26917;52.328;20.878;2022-09-12T00:45:40;10.80;99.90
18252;DHT22;26917;52.328;20.878;2022-09-12T00:48:21;10.70;99.90
18252;DHT22;26917;52.328;20.878;2022-09-12T00:51:07;10.80;99.90
18252;DHT22;26917;52.328;20.878;2022-09-12T00:53:43;10.70;99.90
18252;DHT22;26917;52.328;20.878;2022-09-12T00:56:16;10.70;99.90
18252;DHT22;26917;52.328;20.878;2022-09-12T00:58:50;10.60;99.90
18252;DHT22;26917;52.328;20.878;2022-09-12T01:01:24;10.60;99.90
18252;DHT22;26917;52.328;20.878;2022-09-12T01:04:12;10.50;99.90
18252;DHT22;26917;52.328;20.878;2022-09-12T01:06:42;10.50;99.90
18252;DHT22;26917;52.328;20.878;2022-09-12T01:09:22;10.50;99.90
18252;DHT22;26917;52.328;20.878;2022-09-12T01:12:01;10.40;99.90
18252;DHT22;26917;52.328;20.878;2022-09-12T01:14:32;10.40;99.90
18252;DHT22;26917;52.328;20.878;2022-09-12T01:17:05;10.10;99.90
18252;DHT22;26917;52.328;20.878;2022-09-12T01:23:17;10.30;99.90
18252;DHT22;26917;52.328;20.878;2022-09-12T01:26:39;10.40;99.90
18252;DHT22;26917;52.328;20.878;2022-09-12T01:29:24;10.40;99.90
18252;DHT22;26917;52.328;20.878;2022-09-12T01:32:07;10.40;99.90
18252;DHT22;26917;52.328;20.878;2022-09-12T01:34:48;10.40;99.90
18252;DHT22;26917;52.328;20.878;2022-09-12T01:37:38;10.40;99.90
18252;DHT22;26917;52.328;20.878;2022-09-12T01:40:11;10.50;99.90
18252;DHT22;26917;52.328;20.878;2022-09-12T01:42:51;10.50;99.90
18252;DHT22;26917;52.328;20.878;2022-09-12T01:45:33;10.50;99.90
18252;DHT22;26917;52.328;20.878;2022-09-12T01:48:18;10.40;99.90
18252;DHT22;26917;52.328;20.878;2022-09-12T01:51:15;10.50;99.90
18252;DHT22;26917;52.328;20.878;2022-09-12T01:53:50;10.50;99.90
18252;DHT22;26917;52.328;20.878;2022-09-12T01:56:26;10.50;99.90
18252;DHT22;26917;52.328;20.878;2022-09-12T01:59:04;10.50;99.90
18252;DHT22;26917;52.328;20.878;2022-09-12T02:01:46;10.50;99.90
18252;DHT22;26917;52.328;20.878;2022-09-12T02:04:28;10.50;99.90
18252;DHT22;26917;52.328;20.878;2022-09-12T02:07:42;10.50;99.90
18252;DHT22;26917;52.328;20.878;2022-09-12T02:10:42;10.50;99.90
18252;DHT22;26917;52.328;20.878;2022-09-12T02:13:17;10.60;99.90
18252;DHT22;26917;52.328;20.878;2022-09-12T02:16:03;10.60;99.90
18252;DHT22;26917;52.328;20.878;2022-09-12T02:18:34;10.60;99.90
18252;DHT22;26917;52.328;20.878;2022-09-12T02:21:22;10.60;99.90
18252;DHT22;26917;52.328;20.878;2022-09-12T02:23:56;10.60;99.90
18252;DHT22;26917;52.328;20.878;2022-09-12T02:26:35;10.60;99.90
18252;DHT22;26917;52.328;20.878;2022-09-12T02:29:06;10.60;99.90
18252;DHT22;26917;52.328;20.878;2022-09-12T02:31:39;10.60;99.90
18252;DHT22;26917;52.328;20.878;2022-09-12T02:34:21;10.70;99.90
18252;DHT22;26917;52.328;20.878;2022-09-12T02:37:11;10.70;99.90
18252;DHT22;26917;52.328;20.878;2022-09-12T02:39:54;10.60;99.90
18252;DHT22;26917;52.328;20.878;2022-09-12T02:42:29;10.70;99.90
18252;DHT22;26917;52.328;20.878;2022-09-12T02:45:12;10.70;99.90
18252;DHT22;26917;52.328;20.878;2022-09-12T02:47:47;10.60;99.90
18252;DHT22;26917;52.328;20.878;2022-09-12T02:50:19;10.70;99.90
18252;DHT22;26917;52.328;20.878;2022-09-12T02:52:54;10.70;99.90
18252;DHT22;26917;52.328;20.878;2022-09-12T02:55:28;10.70;99.90
18252;DHT22;26917;52.328;20.878;2022-09-12T02:58:01;10.60;99.90
18252;DHT22;26917;52.328;20.878;2022-09-12T03:00:33;10.60;99.90
18252;DHT22;26917;52.328;20.878;2022-09-12T03:06:22;10.60;99.90
18252;DHT22;26917;52.328;20.878;2022-09-12T03:09:04;10.60;99.90
18252;DHT22;26917;52.328;20.878;2022-09-12T03:11:52;10.60;99.90
18252;DHT22;26917;52.328;20.878;2022-09-12T03:17:48;10.50;99.90
18252;DHT22;26917;52.328;20.878;2022-09-12T03:20:33;10.60;99.90
18252;DHT22;26917;52.328;20.878;2022-09-12T03:23:18;10.50;99.90
18252;DHT22;26917;52.328;20.878;2022-09-12T03:25:54;10.40;99.90
18252;DHT22;26917;52.328;20.878;2022-09-12T03:28:25;10.40;99.90
18252;DHT22;26917;52.328;20.878;2022-09-12T03:30:54;10.40;99.90
18252;DHT22;26917;52.328;20.878;2022-09-12T03:33:25;10.40;99.90
18252;DHT22;26917;52.328;20.878;2022-09-12T03:35:54;10.40;99.90
18252;DHT22;26917;52.328;20.878;2022-09-12T03:38:28;10.40;99.90
18252;DHT22;26917;52.328;20.878;2022-09-12T03:41:01;10.40;99.90
18252;DHT22;26917;52.328;20.878;2022-09-12T03:43:59;10.40;99.90
18252;DHT22;26917;52.328;20.878;2022-09-12T03:46:45;10.30;99.90
18252;DHT22;26917;52.328;20.878;2022-09-12T03:49:23;10.30;99.90
18252;DHT22;26917;52.328;20.878;2022-09-12T03:51:51;10.30;99.90
18252;DHT22;26917;52.328;20.878;2022-09-12T03:54:20;10.30;99.90
18252;DHT22;26917;52.328;20.878;2022-09-12T03:56:50;10.20;99.90
18252;DHT22;26917;52.328;20.878;2022-09-12T03:59:18;10.20;99.90
18252;DHT22;26917;52.328;20.878;2022-09-12T04:01:54;10.20;99.90
18252;DHT22;26917;52.328;20.878;2022-09-12T04:04:53;10.20;99.90
18252;DHT22;26917;52.328;20.878;2022-09-12T04:07:23;10.20;99.90
18252;DHT22;26917;52.328;20.878;2022-09-12T04:09:57;10.20;99.90
18252;DHT22;26917;52.328;20.878;2022-09-12T04:12:28;10.20;99.90
18252;DHT22;26917;52.328;20.878;2022-09-12T04:14:56;10.10;99.90
18252;DHT22;26917;52.328;20.878;2022-09-12T04:17:25;10.10;99.90
18252;DHT22;26917;52.328;20.878;2022-09-12T04:19:54;10.10;99.90
18252;DHT22;26917;52.328;20.878;2022-09-12T04:22:30;10.00;99.90
18252;DHT22;26917;52.328;20.878;2022-09-12T04:24:59;10.00;99.90
18252;DHT22;26917;52.328;20.878;2022-09-12T04:27:41;10.00;99.90
18252;DHT22;26917;52.328;20.878;2022-09-12T04:30:11;10.00;99.90
18252;DHT22;26917;52.328;20.878;2022-09-12T04:32:42;9.60;99.90
18252;DHT22;26917;52.328;20.878;2022-09-12T04:35:16;10.00;99.90
18252;DHT22;26917;52.328;20.878;2022-09-12T04:37:54;10.10;99.90
18252;DHT22;26917;52.328;20.878;2022-09-12T04:40:32;10.00;99.90
18252;DHT22;26917;52.328;20.878;2022-09-12T04:43:18;10.00;99.90
18252;DHT22;26917;52.328;20.878;2022-09-12T04:45:56;10.00;99.90
18252;DHT22;26917;52.328;20.878;2022-09-12T04:48:36;10.00;99.90
18252;DHT22;26917;52.328;20.878;2022-09-12T04:51:09;10.00;99.90
18252;DHT22;26917;52.328;20.878;2022-09-12T04:53:49;10.00;99.90
18252;DHT22;26917;52.328;20.878;2022-09-12T04:56:19;10.00;99.90
18252;DHT22;26917;52.328;20.878;2022-09-12T04:58:49;10.00;99.90
18252;DHT22;26917;52.328;20.878;2022-09-12T05:01:19;10.00;99.90
18252;DHT22;26917;52.328;20.878;2022-09-12T05:03:53;10.00;99.90
18252;DHT22;26917;52.328;20.878;2022-09-12T05:06:25;10.10;99.90
18252;DHT22;26917;52.328;20.878;2022-09-12T05:08:54;10.00;99.90
18252;DHT22;26917;52.328;20.878;2022-09-12T05:11:25;10.00;99.90
18252;DHT22;26917;52.328;20.878;2022-09-12T05:14:15;10.00;99.90
18252;DHT22;26917;52.328;20.878;2022-09-12T05:16:47;10.00;99.90
18252;DHT22;26917;52.328;20.878;2022-09-12T05:19:21;10.10;99.90
18252;DHT22;26917;52.328;20.878;2022-09-12T05:21:51;10.00;99.90
18252;DHT22;26917;52.328;20.878;2022-09-12T05:24:20;10.00;99.90
18252;DHT22;26917;52.328;20.878;2022-09-12T05:26:48;10.00;99.90
18252;DHT22;26917;52.328;20.878;2022-09-12T05:29:18;10.10;99.90
18252;DHT22;26917;52.328;20.878;2022-09-12T05:31:49;10.10;99.90
18252;DHT22;26917;52.328;20.878;2022-09-12T05:34:20;10.10;99.90
18252;DHT22;26917;52.328;20.878;2022-09-12T05:36:52;10.10;99.90
18252;DHT22;26917;52.328;20.878;2022-09-12T05:39:21;10.10;99.90
18252;DHT22;26917;52.328;20.878;2022-09-12T05:41:54;10.10;99.90
18252;DHT22;26917;52.328;20.878;2022-09-12T05:44:24;10.10;99.90
18252;DHT22;26917;52.328;20.878;2022-09-12T05:46:53;10.10;99.90
18252;DHT22;26917;52.328;20.878;2022-09-12T05:49:25;10.20;99.90
18252;DHT22;26917;52.328;20.878;2022-09-12T05:51:54;10.10;99.90
18252;DHT22;26917;52.328;20.878;2022-09-12T05:54:22;10.20;99.90
18252;DHT22;26917;52.328;20.878;2022-09-12T05:56:57;10.10;99.90
18252;DHT22;26917;52.328;20.878;2022-09-12T06:03:47;10.10;99.90
18252;DHT22;26917;52.328;20.878;2022-09-12T06:10:21;10.00;99.90
18252;DHT22;26917;52.328;20.878;2022-09-12T06:14:03;10.00;99.90
18252;DHT22;26917;52.328;20.878;2022-09-12T06:33:56;10.10;99.90
18252;DHT22;26917;52.328;20.878;2022-09-12T06:55:37;10.40;99.90
18252;DHT22;26917;52.328;20.878;2022-09-12T06:59:07;10.40;99.90
18252;DHT22;26917;52.328;20.878;2022-09-12T07:14:01;10.70;99.90
18252;DHT22;26917;52.328;20.878;2022-09-12T07:17:45;10.80;99.90
18252;DHT22;26917;52.328;20.878;2022-09-12T07:24:59;10.80;99.90
18252;DHT22;26917;52.328;20.878;2022-09-12T07:35:59;10.80;99.90
18252;DHT22;26917;52.328;20.878;2022-09-12T07:37:01;10.90;99.90
18252;DHT22;26917;52.328;20.878;2022-09-12T07:48:37;11.00;99.90
18252;DHT22;26917;52.328;20.878;2022-09-12T07:51:55;11.10;99.90
18252;DHT22;26917;52.328;20.878;2022-09-12T08:03:01;11.40;99.90
18252;DHT22;26917;52.328;20.878;2022-09-12T08:10:30;11.50;99.90
18252;DHT22;26917;52.328;20.878;2022-09-12T08:13:04;11.60;99.90
18252;DHT22;26917;52.328;20.878;2022-09-12T08:15:43;11.70;99.90
18252;DHT22;26917;52.328;20.878;2022-09-12T08:18:40;11.70;99.90
18252;DHT22;26917;52.328;20.878;2022-09-12T08:21:33;11.50;99.90
18252;DHT22;26917;52.328;20.878;2022-09-12T08:24:42;11.70;99.90
18252;DHT22;26917;52.328;20.878;2022-09-12T08:31:16;12.00;99.90
18252;DHT22;26917;52.328;20.878;2022-09-12T08:34:04;12.10;99.90
18252;DHT22;26917;52.328;20.878;2022-09-12T08:36:37;12.10;99.90
18252;DHT22;26917;52.328;20.878;2022-09-12T08:39:06;12.20;99.90
18252;DHT22;26917;52.328;20.878;2022-09-12T08:41:42;12.20;99.90
18252;DHT22;26917;52.328;20.878;2022-09-12T08:44:25;12.20;99.90
18252;DHT22;26917;52.328;20.878;2022-09-12T08:47:13;12.30;99.90
18252;DHT22;26917;52.328;20.878;2022-09-12T08:49:52;12.30;99.90
18252;DHT22;26917;52.328;20.878;2022-09-12T08:52:32;12.40;99.90
18252;DHT22;26917;52.328;20.878;2022-09-12T08:55:05;12.40;99.90
18252;DHT22;26917;52.328;20.878;2022-09-12T08:57:37;12.40;99.90
18252;DHT22;26917;52.328;20.878;2022-09-12T09:00:11;12.40;99.90
18252;DHT22;26917;52.328;20.878;2022-09-12T09:03:19;12.50;99.90
18252;DHT22;26917;52.328;20.878;2022-09-12T09:05:52;12.50;99.90
18252;DHT22;26917;52.328;20.878;2022-09-12T09:08:33;12.40;99.90
18252;DHT22;26917;52.328;20.878;2022-09-12T09:11:20;12.50;99.90
18252;DHT22;26917;52.328;20.878;2022-09-12T09:14:01;12.40;99.90
18252;DHT22;26917;52.328;20.878;2022-09-12T09:17:08;12.40;99.90
18252;DHT22;26917;52.328;20.878;2022-09-12T09:19:55;12.50;99.90
18252;DHT22;26917;52.328;20.878;2022-09-12T09:22:35;12.50;99.90
18252;DHT22;26917;52.328;20.878;2022-09-12T09:25:10;12.60;99.90
18252;DHT22;26917;52.328;20.878;2022-09-12T09:27:43;12.60;99.90
18252;DHT22;26917;52.328;20.878;2022-09-12T09:30:45;12.70;99.90
18252;DHT22;26917;52.328;20.878;2022-09-12T09:33:19;12.90;99.90
18252;DHT22;26917;52.328;20.878;2022-09-12T09:35:57;12.90;99.90
18252;DHT22;26917;52.328;20.878;2022-09-12T09:38:44;12.90;99.90
18252;DHT22;26917;52.328;20.878;2022-09-12T09:41:42;12.90;99.90
18252;DHT22;26917;52.328;20.878;2022-09-12T09:44:17;12.90;99.90
18252;DHT22;26917;52.328;20.878;2022-09-12T09:46:46;12.80;99.90
18252;DHT22;26917;52.328;20.878;2022-09-12T09:49:17;12.80;99.90
18252;DHT22;26917;52.328;20.878;2022-09-12T09:51:48;12.70;99.90
18252;DHT22;26917;52.328;20.878;2022-09-12T09:54:38;12.70;99.90
18252;DHT22;26917;52.328;20.878;2022-09-12T09:57:39;12.70;99.90
18252;DHT22;26917;52.328;20.878;2022-09-12T10:00:30;12.40;99.90
18252;DHT22;26917;52.328;20.878;2022-09-12T10:03:31;12.70;99.90
18252;DHT22;26917;52.328;20.878;2022-09-12T10:06:07;12.70;99.90
18252;DHT22;26917;52.328;20.878;2022-09-12T10:09:16;12.70;99.90
18252;DHT22;26917;52.328;20.878;2022-09-12T10:11:46;12.80;99.90
18252;DHT22;26917;52.328;20.878;2022-09-12T10:14:37;12.80;99.90
18252;DHT22;26917;52.328;20.878;2022-09-12T10:17:26;12.80;99.90
18252;DHT22;26917;52.328;20.878;2022-09-12T10:20:00;12.80;99.90
18252;DHT22;26917;52.328;20.878;2022-09-12T10:22:48;12.80;99.90
18252;DHT22;26917;52.328;20.878;2022-09-12T10:25:34;12.80;99.90
18252;DHT22;26917;52.328;20.878;2022-09-12T10:28:19;12.80;99.90
18252;DHT22;26917;52.328;20.878;2022-09-12T10:30:54;12.80;99.90
18252;DHT22;26917;52.328;20.878;2022-09-12T10:33:25;12.80;99.90
18252;DHT22;26917;52.328;20.878;2022-09-12T10:35:54;12.90;99.90
18252;DHT22;26917;52.328;20.878;2022-09-12T10:38:38;12.90;99.90
18252;DHT22;26917;52.328;20.878;2022-09-12T10:41:11;12.90;99.90
18252;DHT22;26917;52.328;20.878;2022-09-12T10:43:39;12.90;99.90
18252;DHT22;26917;52.328;20.878;2022-09-12T10:46:28;12.80;99.90
18252;DHT22;26917;52.328;20.878;2022-09-12T10:49:25;12.80;99.90
18252;DHT22;26917;52.328;20.878;2022-09-12T10:51:55;12.90;99.90
18252;DHT22;26917;52.328;20.878;2022-09-12T10:54:26;12.90;99.90
18252;DHT22;26917;52.328;20.878;2022-09-12T10:57:30;13.00;99.90
18252;DHT22;26917;52.328;20.878;2022-09-12T11:00:09;13.20;99.90
18252;DHT22;26917;52.328;20.878;2022-09-12T11:02:50;13.30;99.90
18252;DHT22;26917;52.328;20.878;2022-09-12T11:05:32;13.40;99.90
18252;DHT22;26917;52.328;20.878;2022-09-12T11:08:13;13.60;99.90
18252;DHT22;26917;52.328;20.878;2022-09-12T11:10:50;13.70;99.90
18252;DHT22;26917;52.328;20.878;2022-09-12T11:13:50;13.80;99.90
18252;DHT22;26917;52.328;20.878;2022-09-12T11:16:26;13.80;99.90
18252;DHT22;26917;52.328;20.878;2022-09-12T11:22:26;13.80;99.90
18252;DHT22;26917;52.328;20.878;2022-09-12T11:28:17;13.80;99.90
18252;DHT22;26917;52.328;20.878;2022-09-12T11:34:01;13.70;99.90
18252;DHT22;26917;52.328;20.878;2022-09-12T11:36:40;13.70;99.90
18252;DHT22;26917;52.328;20.878;2022-09-12T11:39:14;13.70;99.90
18252;DHT22;26917;52.328;20.878;2022-09-12T11:41:51;13.70;99.90
18252;DHT22;26917;52.328;20.878;2022-09-12T11:44:33;13.60;99.90
18252;DHT22;26917;52.328;20.878;2022-09-12T11:47:16;13.50;99.90
18252;DHT22;26917;52.328;20.878;2022-09-12T11:49:52;13.50;99.90
18252;DHT22;26917;52.328;20.878;2022-09-12T11:55:15;13.80;99.90
18252;DHT22;26917;52.328;20.878;2022-09-12T11:58:00;13.70;99.90
18252;DHT22;26917;52.328;20.878;2022-09-12T12:00:39;13.90;99.90
18252;DHT22;26917;52.328;20.878;2022-09-12T12:03:14;13.90;99.90
18252;DHT22;26917;52.328;20.878;2022-09-12T12:05:50;14.00;99.90
18252;DHT22;26917;52.328;20.878;2022-09-12T12:08:21;14.20;99.90
18252;DHT22;26917;52.328;20.878;2022-09-12T12:11:00;14.30;99.90
18252;DHT22;26917;52.328;20.878;2022-09-12T12:13:33;14.40;99.90
18252;DHT22;26917;52.328;20.878;2022-09-12T12:16:15;14.40;99.90
18252;DHT22;26917;52.328;20.878;2022-09-12T12:18:55;14.30;99.90
18252;DHT22;26917;52.328;20.878;2022-09-12T12:21:39;14.20;99.90
18252;DHT22;26917;52.328;20.878;2022-09-12T12:24:26;14.10;99.90
18252;DHT22;26917;52.328;20.878;2022-09-12T12:27:03;14.10;99.90
18252;DHT22;26917;52.328;20.878;2022-09-12T12:29:40;14.00;99.90
18252;DHT22;26917;52.328;20.878;2022-09-12T12:32:25;14.00;99.90
18252;DHT22;26917;52.328;20.878;2022-09-12T12:35:42;13.90;99.90
18252;DHT22;26917;52.328;20.878;2022-09-12T12:38:29;13.90;99.90
18252;DHT22;26917;52.328;20.878;2022-09-12T12:47:15;14.00;99.90
18252;DHT22;26917;52.328;20.878;2022-09-12T12:49:50;14.00;99.90
18252;DHT22;26917;52.328;20.878;2022-09-12T12:52:43;14.00;99.90
18252;DHT22;26917;52.328;20.878;2022-09-12T12:55:21;14.00;99.90
18252;DHT22;26917;52.328;20.878;2022-09-12T12:57:53;14.00;99.90
18252;DHT22;26917;52.328;20.878;2022-09-12T13:00:39;14.00;99.90
18252;DHT22;26917;52.328;20.878;2022-09-12T13:03:21;14.00;99.90
18252;DHT22;26917;52.328;20.878;2022-09-12T13:05:57;14.00;99.90
18252;DHT22;26917;52.328;20.878;2022-09-12T13:08:56;14.00;99.90
18252;DHT22;26917;52.328;20.878;2022-09-12T13:11:30;14.00;99.90
18252;DHT22;26917;52.328;20.878;2022-09-12T13:14:06;14.00;99.90
18252;DHT22;26917;52.328;20.878;2022-09-12T13:16:37;14.10;99.90
18252;DHT22;26917;52.328;20.878;2022-09-12T13:19:10;14.20;99.90
18252;DHT22;26917;52.328;20.878;2022-09-12T13:22:06;14.30;99.90
18252;DHT22;26917;52.328;20.878;2022-09-12T13:24:45;14.40;99.90
18252;DHT22;26917;52.328;20.878;2022-09-12T13:27:19;14.50;99.90
18252;DHT22;26917;52.328;20.878;2022-09-12T13:30:07;14.50;99.90
18252;DHT22;26917;52.328;20.878;2022-09-12T13:32:36;14.60;99.90
18252;DHT22;26917;52.328;20.878;2022-09-12T13:35:17;14.60;99.90
18252;DHT22;26917;52.328;20.878;2022-09-12T13:38:21;14.60;99.90
18252;DHT22;26917;52.328;20.878;2022-09-12T13:41:12;14.70;99.90
18252;DHT22;26917;52.328;20.878;2022-09-12T13:43:48;14.70;99.90
18252;DHT22;26917;52.328;20.878;2022-09-12T13:46:42;14.80;99.90
18252;DHT22;26917;52.328;20.878;2022-09-12T13:49:17;14.90;99.90
18252;DHT22;26917;52.328;20.878;2022-09-12T13:51:56;15.00;99.90
18252;DHT22;26917;52.328;20.878;2022-09-12T13:54:33;15.10;99.90
18252;DHT22;26917;52.328;20.878;2022-09-12T13:57:05;15.30;99.90
18252;DHT22;26917;52.328;20.878;2022-09-12T13:59:40;15.50;99.90
18252;DHT22;26917;52.328;20.878;2022-09-12T14:02:21;15.60;99.90
18252;DHT22;26917;52.328;20.878;2022-09-12T14:05:11;15.70;99.90
18252;DHT22;26917;52.328;20.878;2022-09-12T14:08:15;15.70;99.90
18252;DHT22;26917;52.328;20.878;2022-09-12T14:10:53;15.80;99.90
18252;DHT22;26917;52.328;20.878;2022-09-12T14:16:39;15.90;99.90
18252;DHT22;26917;52.328;20.878;2022-09-12T14:19:11;16.00;99.90
18252;DHT22;26917;52.328;20.878;2022-09-12T14:21:59;15.90;99.90
18252;DHT22;26917;52.328;20.878;2022-09-12T14:24:28;15.90;99.90
18252;DHT22;26917;52.328;20.878;2022-09-12T14:27:02;15.80;99.90
18252;DHT22;26917;52.328;20.878;2022-09-12T14:29:31;15.70;99.90
18252;DHT22;26917;52.328;20.878;2022-09-12T14:32:25;15.70;99.90
18252;DHT22;26917;52.328;20.878;2022-09-12T14:35:18;15.60;99.90
18252;DHT22;26917;52.328;20.878;2022-09-12T14:38:11;15.50;99.90
18252;DHT22;26917;52.328;20.878;2022-09-12T14:40:59;15.60;99.90
18252;DHT22;26917;52.328;20.878;2022-09-12T14:43:33;15.50;99.90
18252;DHT22;26917;52.328;20.878;2022-09-12T14:49:17;15.40;99.90
18252;DHT22;26917;52.328;20.878;2022-09-12T14:51:53;15.30;99.90
18252;DHT22;26917;52.328;20.878;2022-09-12T14:54:36;15.30;99.90
18252;DHT22;26917;52.328;20.878;2022-09-12T14:57:16;15.20;
18252;DHT22;26917;52.328;20.878;2022-09-12T15:03:22;15.20;99.90
18252;DHT22;26917;52.328;20.878;2022-09-12T15:06:19;15.10;99.90
18252;DHT22;26917;52.328;20.878;2022-09-12T15:08:49;15.00;99.90
18252;DHT22;26917;52.328;20.878;2022-09-12T15:11:22;15.00;99.90
18252;DHT22;26917;52.328;20.878;2022-09-12T15:13:51;15.00;99.90
18252;DHT22;26917;52.328;20.878;2022-09-12T15:16:19;14.90;99.90
18252;DHT22;26917;52.328;20.878;2022-09-12T15:18:48;14.80;99.90
18252;DHT22;26917;52.328;20.878;2022-09-12T15:21:33;14.80;99.90
18252;DHT22;26917;52.328;20.878;2022-09-12T15:24:02;14.80;99.90
18252;DHT22;26917;52.328;20.878;2022-09-12T15:26:30;14.70;99.90
18252;DHT22;26917;52.328;20.878;2022-09-12T15:29:00;14.70;99.90
18252;DHT22;26917;52.328;20.878;2022-09-12T15:31:30;14.60;99.90
18252;DHT22;26917;52.328;20.878;2022-09-12T15:34:01;14.60;99.90
18252;DHT22;26917;52.328;20.878;2022-09-12T15:36:29;14.50;99.90
18252;DHT22;26917;52.328;20.878;2022-09-12T15:39:14;14.50;99.90
18252;DHT22;26917;52.328;20.878;2022-09-12T15:41:47;14.40;99.90
18252;DHT22;26917;52.328;20.878;2022-09-12T15:44:15;14.40;99.90
18252;DHT22;26917;52.328;20.878;2022-09-12T15:46:43;14.30;99.90
18252;DHT22;26917;52.328;20.878;2022-09-12T15:49:12;14.20;99.90
18252;DHT22;26917;52.328;20.878;2022-09-12T15:51:41;14.20;99.90
18252;DHT22;26917;52.328;20.878;2022-09-12T15:54:11;14.10;99.90
18252;DHT22;26917;52.328;20.878;2022-09-12T15:56:59;14.10;99.90
18252;DHT22;26917;52.328;20.878;2022-09-12T15:59:27;14.10;99.90
18252;DHT22;26917;52.328;20.878;2022-09-12T16:01:57;14.00;99.90
18252;DHT22;26917;52.328;20.878;2022-09-12T16:04:27;14.00;99.90
18252;DHT22;26917;52.328;20.878;2022-09-12T16:06:59;14.00;99.90
18252;DHT22;26917;52.328;20.878;2022-09-12T16:09:27;13.90;99.90
18252;DHT22;26917;52.328;20.878;2022-09-12T16:11:58;13.90;99.90
18252;DHT22;26917;52.328;20.878;2022-09-12T16:14:28;13.90;99.90
18252;DHT22;26917;52.328;20.878;2022-09-12T16:17:00;13.80;99.90
18252;DHT22;26917;52.328;20.878;2022-09-12T16:19:33;13.80;99.90
18252;DHT22;26917;52.328;20.878;2022-09-12T16:22:03;13.80;99.90
18252;DHT22;26917;52.328;20.878;2022-09-12T16:24:32;13.70;99.90
18252;DHT22;26917;52.328;20.878;2022-09-12T16:27:04;13.80;99.90
18252;DHT22;26917;52.328;20.878;2022-09-12T16:29:33;14.00;99.90
18252;DHT22;26917;52.328;20.878;2022-09-12T16:32:02;13.70;99.90
18252;DHT22;26917;52.328;20.878;2022-09-12T16:34:32;13.60;99.90
18252;DHT22;26917;52.328;20.878;2022-09-12T16:37:03;13.60;99.90
18252;DHT22;26917;52.328;20.878;2022-09-12T16:39:32;13.60;99.90
18252;DHT22;26917;52.328;20.878;2022-09-12T16:42:01;13.50;99.90
18252;DHT22;26917;52.328;20.878;2022-09-12T16:44:49;13.50;99.90
18252;DHT22;26917;52.328;20.878;2022-09-12T16:47:17;13.50;99.90
18252;DHT22;26917;52.328;20.878;2022-09-12T16:49:46;13.40;99.90
18252;DHT22;26917;52.328;20.878;2022-09-12T16:52:14;13.40;99.90
18252;DHT22;26917;52.328;20.878;2022-09-12T16:54:43;13.40;99.90
18252;DHT22;26917;52.328;20.878;2022-09-12T16:57:12;13.30;99.90
18252;DHT22;26917;52.328;20.878;2022-09-12T16:59:41;13.30;99.90
18252;DHT22;26917;52.328;20.878;2022-09-12T17:02:12;13.30;99.90
18252;DHT22;26917;52.328;20.878;2022-09-12T17:04:41;13.20;99.90
18252;DHT22;26917;52.328;20.878;2022-09-12T17:07:09;13.20;99.90
18252;DHT22;26917;52.328;20.878;2022-09-12T17:09:38;13.20;99.90
18252;DHT22;26917;52.328;20.878;2022-09-12T17:12:12;13.20;99.90
18252;DHT22;26917;52.328;20.878;2022-09-12T17:14:40;13.20;99.90
18252;DHT22;26917;52.328;20.878;2022-09-12T17:20:11;13.10;99.90
18252;DHT22;26917;52.328;20.878;2022-09-12T17:22:41;13.10;99.90
18252;DHT22;26917;52.328;20.878;2022-09-12T17:25:10;13.10;99.90
18252;DHT22;26917;52.328;20.878;2022-09-12T17:27:39;13.00;99.90
18252;DHT22;26917;52.328;20.878;2022-09-12T17:30:09;13.00;99.90
18252;DHT22;26917;52.328;20.878;2022-09-12T17:32:37;13.00;99.90
18252;DHT22;26917;52.328;20.878;2022-09-12T17:35:06;12.90;99.90
18252;DHT22;26917;52.328;20.878;2022-09-12T17:37:38;12.90;99.90
18252;DHT22;26917;52.328;20.878;2022-09-12T17:40:07;12.90;99.90
18252;DHT22;26917;52.328;20.878;2022-09-12T17:42:36;12.80;99.90
18252;DHT22;26917;52.328;20.878;2022-09-12T17:45:08;12.80;99.90
18252;DHT22;26917;52.328;20.878;2022-09-12T17:47:44;12.80;99.90
18252;DHT22;26917;52.328;20.878;2022-09-12T17:50:14;12.80;99.90
18252;DHT22;26917;52.328;20.878;2022-09-12T17:53:13;12.70;99.90
18252;DHT22;26917;52.328;20.878;2022-09-12T17:55:42;12.70;99.90
18252;DHT22;26917;52.328;20.878;2022-09-12T17:58:11;12.70;99.90
18252;DHT22;26917;52.328;20.878;2022-09-12T18:00:39;12.70;99.90
18252;DHT22;26917;52.328;20.878;2022-09-12T18:03:26;12.60;99.90
18252;DHT22;26917;52.328;20.878;2022-09-12T18:05:55;12.60;99.90
18252;DHT22;26917;52.328;20.878;2022-09-12T18:08:25;12.60;99.90
18252;DHT22;26917;52.328;20.878;2022-09-12T18:10:53;12.50;99.90
18252;DHT22;26917;52.328;20.878;2022-09-12T18:13:31;12.50;99.90
18252;DHT22;26917;52.328;20.878;2022-09-12T18:16:02;12.50;99.90
18252;DHT22;26917;52.328;20.878;2022-09-12T18:18:33;12.50;99.90
18252;DHT22;26917;52.328;20.878;2022-09-12T18:21:03;12.50;99.90
18252;DHT22;26917;52.328;20.878;2022-09-12T18:23:51;12.50;99.90
18252;DHT22;26917;52.328;20.878;2022-09-12T18:26:19;12.50;99.90
18252;DHT22;26917;52.328;20.878;2022-09-12T18:28:49;12.50;99.90
18252;DHT22;26917;52.328;20.878;2022-09-12T18:31:21;12.40;99.90
18252;DHT22;26917;52.328;20.878;2022-09-12T18:33:50;12.40;99.90
18252;DHT22;26917;52.328;20.878;2022-09-12T18:36:19;12.40;99.90
18252;DHT22;26917;52.328;20.878;2022-09-12T18:38:48;12.40;99.90
18252;DHT22;26917;52.328;20.878;2022-09-12T18:41:19;12.30;99.90